New Paltz, NY (12561)

1:34 PM EST on February 13, 2016 (GMT -0500)
SUNY New Paltz | | Change Station
CLOSE
Current Station
Personal Weather Station
Location: New Paltz, NY
Elevation: 322 ft
Nearby Weather Stations
Active Advisory: Wind Chill Warning

Elev 322 ft 41.73 °N, 74.09 °W | Updated 4 minutes ago

Clear
Clear
13.6 °F
Feels Like 4 °F
N
6.0
Wind Variable Wind from WNW
Gusts 11.0 mph

Today
High -- | Low -- °F
--% Chance of Precip.
Yesterday
High -- | Low -- °F
Precip. -- in
Pressure 30.05 in
Visibility 10.0 miles
Clouds Few 6000 ft
Windchill 4 °F
Dew Point -10 °F
Humidity 33%
Rainfall 0.00 in
Snow Depth Not available.
6:55 AM 5:26 PM
Waxing Crescent, 33% visible
METAR KPOU 131753Z 29019G28KT 10SM FEW060 M08/M24 A3005 RMK AO2 PK WND 25032/1711 SLP174 60000 T10831244 11056 21083 52017
Pressure 30.05 in
Visibility 10.0 miles
Clouds Few 6000 ft
Windchill 4 °F
Dew Point -10 °F
Humidity 33%
Rainfall 0.00 in
Snow Depth Not available.
6:55 AM 5:26 PM
Waxing Crescent, 33% visible
METAR KPOU 131753Z 29019G28KT 10SM FEW060 M08/M24 A3005 RMK AO2 PK WND 25032/1711 SLP174 60000 T10831244 11056 21083 52017

10-Day Weather Forecast

Almanac

Astronomy

Feb. 13, 2016 Rise Set
Actual Time
Civil Twilight
Nautical Twilight
Astronomical Twilight
Moon
Length of Visible Light
Length of Day
Tomorrow will be .
, % of the Moon is Illuminated

Today's Extremes

State Highs State Lows

Community

WunderPhotos

Upload Photos

1,892,633 photos uploaded!

WunderBlog® & News

Nearby

Air Quality

  Air Quality AQ Index Pollutant
Not available.

Snow Depth

Station Depth Elevation

Earthquake Activity

City Distance Mag. Time & Date
Minimum magnitude displayed is 2.5.

Coastal Water Temperatures

Place Temperature

Stations

Nearby Weather Stations

Station Location Temp. Windchill Dew Point Humidity Wind Precip. Elev Updated Type
                   

Watches & Warnings

Wind Chill Warning
Issued: 4:50 AM EST Feb. 13, 2016 – National Weather Service

... Wind chill warning remains in effect from 1 PM this afternoon
to 1 PM EST Sunday...

* locations... Mohawk Valley... greater capital region... Lake
George Saratoga region... Mid Hudson valley... Taconics...
Berkshires and Litchfield Hills.

* Hazard types... dangerous to potentially life threatening wind
chills.

* Wind chill readings... 25 to 40 below zero at times.

* Timing... early this afternoon through early Sunday afternoon.

* Impacts... wind chills will reach dangerous to potentially life
threatening levels. Frigid temperatures have the potential to
result in frozen pipes... frostbite and hypothermia in a short
amount of time.

* Winds... northwest 15 to 25 mph with gusts up to 45 mph.

* Temperatures... 5 below zero to 20 below zero by late tonight.

Precautionary/preparedness actions...

A wind chill warning means the combination of very cold air and
strong winds will create dangerously low wind chill values. This
will result in frost bite and lead to hypothermia or death if
precautions are not taken.